sensor_id;sensor_type;location;lat;lon;timestamp;pressure;altitude;pressure_sealevel;temperature;humidity
21821;BME280;11073;48.586;12.066;2023-04-05T00:02:11;96905.69;;;2.74;51.55
21821;BME280;11073;48.586;12.066;2023-04-05T00:05:07;96915.50;;;2.82;51.66
21821;BME280;11073;48.586;12.066;2023-04-05T00:07:57;96907.38;;;2.75;51.59
21821;BME280;11073;48.586;12.066;2023-04-05T00:10:52;96900.53;;;2.72;51.74
21821;BME280;11073;48.586;12.066;2023-04-05T00:13:41;96919.44;;;2.71;51.69
21821;BME280;11073;48.586;12.066;2023-04-05T00:16:35;96902.63;;;2.62;51.78
21821;BME280;11073;48.586;12.066;2023-04-05T00:19:30;96903.28;;;2.64;51.65
21821;BME280;11073;48.586;12.066;2023-04-05T00:22:26;96912.13;;;2.65;51.92
21821;BME280;11073;48.586;12.066;2023-04-05T00:25:20;96879.34;;;2.48;51.88
21821;BME280;11073;48.586;12.066;2023-04-05T00:28:15;96896.91;;;2.65;52.00
21821;BME280;11073;48.586;12.066;2023-04-05T00:31:10;96901.81;;;2.62;52.07
21821;BME280;11073;48.586;12.066;2023-04-05T00:34:00;96878.00;;;2.44;52.12
21821;BME280;11073;48.586;12.066;2023-04-05T00:36:50;96891.31;;;2.52;52.26
21821;BME280;11073;48.586;12.066;2023-04-05T00:39:39;96903.28;;;2.64;52.28
21821;BME280;11073;48.586;12.066;2023-04-05T00:42:29;96903.28;;;2.64;52.52
21821;BME280;11073;48.586;12.066;2023-04-05T00:45:20;96898.63;;;2.58;52.40
21821;BME280;11073;48.586;12.066;2023-04-05T00:48:11;96901.13;;;2.60;52.40
21821;BME280;11073;48.586;12.066;2023-04-05T00:51:01;96907.97;;;2.62;52.50
21821;BME280;11073;48.586;12.066;2023-04-05T00:53:52;96885.16;;;2.52;52.60
21821;BME280;11073;48.586;12.066;2023-04-05T00:56:43;96904.28;;;2.63;52.56
21821;BME280;11073;48.586;12.066;2023-04-05T00:59:32;96896.47;;;2.62;52.63
21821;BME280;11073;48.586;12.066;2023-04-05T01:02:30;96891.75;;;2.64;52.58
21821;BME280;11073;48.586;12.066;2023-04-05T01:05:29;96888.66;;;2.52;52.72
21821;BME280;11073;48.586;12.066;2023-04-05T01:08:31;96887.00;;;2.51;52.64
21821;BME280;11073;48.586;12.066;2023-04-05T01:11:25;96892.94;;;2.61;52.73
21821;BME280;11073;48.586;12.066;2023-04-05T01:14:17;96883.09;;;2.62;52.68
21821;BME280;11073;48.586;12.066;2023-04-05T01:17:06;96874.88;;;2.63;52.56
21821;BME280;11073;48.586;12.066;2023-04-05T01:20:01;96881.25;;;2.62;52.58
21821;BME280;11073;48.586;12.066;2023-04-05T01:23:14;96875.06;;;2.62;52.82
21821;BME280;11073;48.586;12.066;2023-04-05T01:29:46;96864.44;;;2.54;52.61
21821;BME280;11073;48.586;12.066;2023-04-05T01:32:45;96871.50;;;2.46;52.49
21821;BME280;11073;48.586;12.066;2023-04-05T01:35:40;96863.75;;;2.52;52.48
21821;BME280;11073;48.586;12.066;2023-04-05T01:38:48;96859.63;;;2.49;52.59
21821;BME280;11073;48.586;12.066;2023-04-05T01:41:46;96858.97;;;2.47;52.46
21821;BME280;11073;48.586;12.066;2023-04-05T01:44:59;96856.75;;;2.51;52.56
21821;BME280;11073;48.586;12.066;2023-04-05T01:47:59;96856.94;;;2.49;52.49
21821;BME280;11073;48.586;12.066;2023-04-05T01:51:02;96844.94;;;2.45;52.56
21821;BME280;11073;48.586;12.066;2023-04-05T01:54:08;96850.75;;;2.48;52.58
21821;BME280;11073;48.586;12.066;2023-04-05T01:57:05;96849.44;;;2.44;52.52
21821;BME280;11073;48.586;12.066;2023-04-05T02:00:09;96820.16;;;2.28;52.62
21821;BME280;11073;48.586;12.066;2023-04-05T02:03:34;96841.59;;;2.43;52.58
21821;BME280;11073;48.586;12.066;2023-04-05T02:07:34;96847.31;;;2.40;52.41
21821;BME280;11073;48.586;12.066;2023-04-05T02:10:33;96847.00;;;2.35;52.54
21821;BME280;11073;48.586;12.066;2023-04-05T02:13:28;96841.53;;;2.28;52.53
21821;BME280;11073;48.586;12.066;2023-04-05T02:16:40;96828.69;;;2.24;52.56
21821;BME280;11073;48.586;12.066;2023-04-05T02:19:52;96838.56;;;2.23;52.60
21821;BME280;11073;48.586;12.066;2023-04-05T02:22:53;96828.06;;;2.21;52.59
21821;BME280;11073;48.586;12.066;2023-04-05T02:26:08;96806.78;;;2.05;52.64
21821;BME280;11073;48.586;12.066;2023-04-05T02:28:59;96819.09;;;2.14;52.58
21821;BME280;11073;48.586;12.066;2023-04-05T02:31:49;96831.63;;;2.14;52.68
21821;BME280;11073;48.586;12.066;2023-04-05T02:34:39;96831.78;;;2.12;52.63
21821;BME280;11073;48.586;12.066;2023-04-05T02:37:29;96826.97;;;2.08;52.72
21821;BME280;11073;48.586;12.066;2023-04-05T02:40:18;96820.47;;;2.10;52.79
21821;BME280;11073;48.586;12.066;2023-04-05T02:43:08;96829.47;;;2.09;52.88
21821;BME280;11073;48.586;12.066;2023-04-05T02:45:58;96822.13;;;2.11;52.83
21821;BME280;11073;48.586;12.066;2023-04-05T02:48:48;96825.81;;;2.10;52.85
21821;BME280;11073;48.586;12.066;2023-04-05T02:51:38;96817.28;;;2.07;52.75
21821;BME280;11073;48.586;12.066;2023-04-05T02:54:29;96820.47;;;2.02;52.83
21821;BME280;11073;48.586;12.066;2023-04-05T02:57:21;96819.00;;;2.00;52.85
21821;BME280;11073;48.586;12.066;2023-04-05T03:00:21;96817.16;;;2.00;52.92
21821;BME280;11073;48.586;12.066;2023-04-05T03:03:12;96819.72;;;1.93;52.91
21821;BME280;11073;48.586;12.066;2023-04-05T03:06:05;96817.72;;;1.87;53.01
21821;BME280;11073;48.586;12.066;2023-04-05T03:09:06;96819.09;;;1.83;53.14
21821;BME280;11073;48.586;12.066;2023-04-05T03:11:56;96818.91;;;1.85;53.13
21821;BME280;11073;48.586;12.066;2023-04-05T03:14:45;96814.22;;;1.87;53.42
21821;BME280;11073;48.586;12.066;2023-04-05T03:17:38;96825.22;;;1.92;53.20
21821;BME280;11073;48.586;12.066;2023-04-05T03:20:33;96821.91;;;1.90;53.15
21821;BME280;11073;48.586;12.066;2023-04-05T03:23:31;96817.56;;;1.89;53.56
21821;BME280;11073;48.586;12.066;2023-04-05T03:26:22;96815.06;;;1.87;53.02
21821;BME280;11073;48.586;12.066;2023-04-05T03:29:13;96814.78;;;1.82;53.18
21821;BME280;11073;48.586;12.066;2023-04-05T03:32:02;96817.44;;;1.82;53.20
21821;BME280;11073;48.586;12.066;2023-04-05T03:34:52;96818.59;;;1.80;53.17
21821;BME280;11073;48.586;12.066;2023-04-05T03:37:41;96806.63;;;1.76;53.27
21821;BME280;11073;48.586;12.066;2023-04-05T03:40:33;96809.13;;;1.77;53.22
21821;BME280;11073;48.586;12.066;2023-04-05T03:43:22;96820.63;;;1.78;53.27
21821;BME280;11073;48.586;12.066;2023-04-05T03:46:11;96816.63;;;1.74;53.17
21821;BME280;11073;48.586;12.066;2023-04-05T03:49:01;96809.47;;;1.74;53.37
21821;BME280;11073;48.586;12.066;2023-04-05T03:51:50;96821.63;;;1.77;53.32
21821;BME280;11073;48.586;12.066;2023-04-05T03:54:39;96816.63;;;1.74;53.25
21821;BME280;11073;48.586;12.066;2023-04-05T03:57:30;96821.00;;;1.66;53.36
21821;BME280;11073;48.586;12.066;2023-04-05T04:00:27;96821.00;;;1.66;53.37
21821;BME280;11073;48.586;12.066;2023-04-05T04:03:42;96819.88;;;1.61;53.29
21821;BME280;11073;48.586;12.066;2023-04-05T04:06:31;96815.88;;;1.57;53.27
21821;BME280;11073;48.586;12.066;2023-04-05T04:09:20;96814.53;;;1.61;53.31
21821;BME280;11073;48.586;12.066;2023-04-05T04:12:10;96815.38;;;1.61;53.49
21821;BME280;11073;48.586;12.066;2023-04-05T04:15:10;96820.06;;;1.59;53.21
21821;BME280;11073;48.586;12.066;2023-04-05T04:18:29;96815.41;;;1.53;53.37
21821;BME280;11073;48.586;12.066;2023-04-05T04:21:37;96808.09;;;1.47;53.39
21821;BME280;11073;48.586;12.066;2023-04-05T04:24:44;96817.97;;;1.38;53.22
21821;BME280;11073;48.586;12.066;2023-04-05T04:28:02;96812.47;;;1.32;53.37
21821;BME280;11073;48.586;12.066;2023-04-05T04:31:10;96811.66;;;1.31;53.31
21821;BME280;11073;48.586;12.066;2023-04-05T04:34:24;96809.81;;;1.32;53.38
21821;BME280;11073;48.586;12.066;2023-04-05T04:37:33;96802.31;;;1.27;53.22
21821;BME280;11073;48.586;12.066;2023-04-05T04:40:42;96814.16;;;1.25;53.17
21821;BME280;11073;48.586;12.066;2023-04-05T04:43:43;96808.31;;;1.21;53.31
21821;BME280;11073;48.586;12.066;2023-04-05T04:46:55;96799.84;;;1.18;53.26
21821;BME280;11073;48.586;12.066;2023-04-05T04:49:58;96807.34;;;1.14;53.31
21821;BME280;11073;48.586;12.066;2023-04-05T04:52:48;96794.34;;;1.19;53.36
21821;BME280;11073;48.586;12.066;2023-04-05T04:55:37;96796.19;;;1.19;53.41
21821;BME280;11073;48.586;12.066;2023-04-05T04:58:28;96784.84;;;1.17;53.34
21821;BME280;11073;48.586;12.066;2023-04-05T05:01:23;96797.34;;;1.08;52.93
21821;BME280;11073;48.586;12.066;2023-04-05T05:04:14;96794.53;;;1.01;53.34
21821;BME280;11073;48.586;12.066;2023-04-05T05:07:04;96799.53;;;1.04;53.30
21821;BME280;11073;48.586;12.066;2023-04-05T05:09:55;96810.22;;;1.04;53.47
21821;BME280;11073;48.586;12.066;2023-04-05T05:12:44;96803.03;;;1.05;53.40
21821;BME280;11073;48.586;12.066;2023-04-05T05:15:34;96809.38;;;1.04;53.21
21821;BME280;11073;48.586;12.066;2023-04-05T05:18:24;96803.88;;;1.05;53.47
21821;BME280;11073;48.586;12.066;2023-04-05T05:21:14;96788.56;;;0.99;53.41
21821;BME280;11073;48.586;12.066;2023-04-05T05:24:10;96806.88;;;1.10;53.49
21821;BME280;11073;48.586;12.066;2023-04-05T05:27:01;96798.50;;;1.14;53.41
21821;BME280;11073;48.586;12.066;2023-04-05T05:29:49;96810.53;;;1.18;53.41
21821;BME280;11073;48.586;12.066;2023-04-05T05:32:39;96797.19;;;1.18;53.57
21821;BME280;11073;48.586;12.066;2023-04-05T05:35:29;96812.50;;;1.24;53.44
21821;BME280;11073;48.586;12.066;2023-04-05T05:38:20;96810.50;;;1.26;53.38
21821;BME280;11073;48.586;12.066;2023-04-05T05:41:10;96823.16;;;1.32;53.52
21821;BME280;11073;48.586;12.066;2023-04-05T05:43:59;96808.00;;;1.24;53.42
21821;BME280;11073;48.586;12.066;2023-04-05T05:46:49;96811.31;;;1.26;53.26
21821;BME280;11073;48.586;12.066;2023-04-05T05:49:38;96813.63;;;1.29;53.55
21821;BME280;11073;48.586;12.066;2023-04-05T05:52:27;96815.81;;;1.26;53.44
21821;BME280;11073;48.586;12.066;2023-04-05T05:55:17;96820.97;;;1.27;53.20
21821;BME280;11073;48.586;12.066;2023-04-05T05:58:07;96825.47;;;1.35;53.33
21821;BME280;11073;48.586;12.066;2023-04-05T06:00:56;96812.31;;;1.33;53.44
21821;BME280;11073;48.586;12.066;2023-04-05T06:03:46;96828.06;;;1.51;53.39
21821;BME280;11073;48.586;12.066;2023-04-05T06:06:35;96838.44;;;1.46;52.96
21821;BME280;11073;48.586;12.066;2023-04-05T06:09:26;96830.47;;;1.38;52.79
21821;BME280;11073;48.586;12.066;2023-04-05T06:12:16;96829.63;;;1.37;52.89
21821;BME280;11073;48.586;12.066;2023-04-05T06:15:06;96831.78;;;1.42;52.94
21821;BME280;11073;48.586;12.066;2023-04-05T06:17:55;96806.13;;;1.33;52.92
21821;BME280;11073;48.586;12.066;2023-04-05T06:20:44;96830.06;;;1.57;53.14
21821;BME280;11073;48.586;12.066;2023-04-05T06:23:33;96827.41;;;1.49;52.86
21821;BME280;11073;48.586;12.066;2023-04-05T06:26:23;96832.53;;;1.59;52.79
21821;BME280;11073;48.586;12.066;2023-04-05T06:29:15;96829.00;;;1.66;53.09
21821;BME280;11073;48.586;12.066;2023-04-05T06:32:04;96829.50;;;1.70;52.73
21821;BME280;11073;48.586;12.066;2023-04-05T06:34:53;96825.81;;;1.71;52.33
21821;BME280;11073;48.586;12.066;2023-04-05T06:37:42;96832.34;;;1.69;52.07
21821;BME280;11073;48.586;12.066;2023-04-05T06:40:31;96832.00;;;1.72;51.97
21821;BME280;11073;48.586;12.066;2023-04-05T06:43:20;96831.50;;;1.76;51.88
21821;BME280;11073;48.586;12.066;2023-04-05T06:46:11;96838.94;;;1.89;51.72
21821;BME280;11073;48.586;12.066;2023-04-05T06:49:00;96833.41;;;1.90;51.52
21821;BME280;11073;48.586;12.066;2023-04-05T06:51:50;96837.56;;;1.93;51.39
21821;BME280;11073;48.586;12.066;2023-04-05T06:54:39;96840.25;;;1.93;51.31
21821;BME280;11073;48.586;12.066;2023-04-05T06:57:28;96842.56;;;1.96;51.10
21821;BME280;11073;48.586;12.066;2023-04-05T07:00:17;96840.16;;;2.09;51.04
21821;BME280;11073;48.586;12.066;2023-04-05T07:03:08;96841.09;;;2.16;50.90
21821;BME280;11073;48.586;12.066;2023-04-05T07:05:58;96834.22;;;2.22;50.67
21821;BME280;11073;48.586;12.066;2023-04-05T07:08:48;96838.41;;;2.25;50.49
21821;BME280;11073;48.586;12.066;2023-04-05T07:11:37;96843.69;;;2.33;50.26
21821;BME280;11073;48.586;12.066;2023-04-05T07:14:28;96833.41;;;2.44;50.28
21821;BME280;11073;48.586;12.066;2023-04-05T07:17:17;96841.53;;;2.51;50.17
21821;BME280;11073;48.586;12.066;2023-04-05T07:20:08;96814.69;;;2.44;50.18
21821;BME280;11073;48.586;12.066;2023-04-05T07:22:57;96834.63;;;2.80;50.92
21821;BME280;11073;48.586;12.066;2023-04-05T07:25:46;96840.41;;;2.91;49.87
21821;BME280;11073;48.586;12.066;2023-04-05T07:28:35;96838.66;;;2.98;49.44
21821;BME280;11073;48.586;12.066;2023-04-05T07:31:25;96838.22;;;3.10;49.45
21821;BME280;11073;48.586;12.066;2023-04-05T07:34:14;96846.63;;;3.21;49.39
21821;BME280;11073;48.586;12.066;2023-04-05T07:37:05;96849.59;;;3.26;48.95
21821;BME280;11073;48.586;12.066;2023-04-05T07:39:54;96823.75;;;3.19;48.70
21821;BME280;11073;48.586;12.066;2023-04-05T07:42:42;96840.19;;;3.30;48.43
21821;BME280;11073;48.586;12.066;2023-04-05T07:45:31;96839.06;;;3.40;48.46
21821;BME280;11073;48.586;12.066;2023-04-05T07:48:20;96840.81;;;3.62;48.51
21821;BME280;11073;48.586;12.066;2023-04-05T07:51:10;96842.75;;;3.68;48.16
21821;BME280;11073;48.586;12.066;2023-04-05T07:54:00;96850.69;;;3.76;47.82
21821;BME280;11073;48.586;12.066;2023-04-05T07:56:50;96844.25;;;3.85;47.79
21821;BME280;11073;48.586;12.066;2023-04-05T07:59:41;96844.41;;;3.99;47.56
21821;BME280;11073;48.586;12.066;2023-04-05T08:02:30;96840.81;;;4.06;46.75
21821;BME280;11073;48.586;12.066;2023-04-05T08:05:20;96841.88;;;4.12;46.63
21821;BME280;11073;48.586;12.066;2023-04-05T08:08:09;96838.72;;;4.23;46.40
21821;BME280;11073;48.586;12.066;2023-04-05T08:11:01;96830.81;;;4.36;46.17
21821;BME280;11073;48.586;12.066;2023-04-05T08:13:50;96829.41;;;4.40;45.72
21821;BME280;11073;48.586;12.066;2023-04-05T08:16:41;96834.00;;;4.47;45.42
21821;BME280;11073;48.586;12.066;2023-04-05T08:19:30;96827.47;;;4.49;45.11
21821;BME280;11073;48.586;12.066;2023-04-05T08:22:20;96829.41;;;4.62;45.04
21821;BME280;11073;48.586;12.066;2023-04-05T08:25:09;96821.06;;;4.72;44.65
21821;BME280;11073;48.586;12.066;2023-04-05T08:27:59;96786.78;;;4.67;44.51
21821;BME280;11073;48.586;12.066;2023-04-05T08:30:52;96815.44;;;4.88;43.96
21821;BME280;11073;48.586;12.066;2023-04-05T08:33:41;96825.25;;;5.02;43.90
21821;BME280;11073;48.586;12.066;2023-04-05T08:36:30;96834.97;;;5.31;44.07
21821;BME280;11073;48.586;12.066;2023-04-05T08:39:19;96820.59;;;5.45;43.76
21821;BME280;11073;48.586;12.066;2023-04-05T08:42:14;96815.81;;;5.75;43.56
21821;BME280;11073;48.586;12.066;2023-04-05T08:45:08;96824.63;;;5.97;43.46
21821;BME280;11073;48.586;12.066;2023-04-05T08:47:57;96837.91;;;6.12;43.00
21821;BME280;11073;48.586;12.066;2023-04-05T08:50:50;96825.34;;;6.26;42.72
21821;BME280;11073;48.586;12.066;2023-04-05T08:53:39;96829.75;;;6.47;42.18
21821;BME280;11073;48.586;12.066;2023-04-05T08:56:30;96824.44;;;6.67;42.08
21821;BME280;11073;48.586;12.066;2023-04-05T08:59:20;96825.25;;;6.87;41.69
21821;BME280;11073;48.586;12.066;2023-04-05T09:02:14;96830.44;;;7.02;41.10
21821;BME280;11073;48.586;12.066;2023-04-05T09:05:08;96827.31;;;7.31;41.22
21821;BME280;11073;48.586;12.066;2023-04-05T09:07:58;96835.59;;;7.50;40.84
21821;BME280;11073;48.586;12.066;2023-04-05T09:10:48;96831.84;;;7.77;40.45
21821;BME280;11073;48.586;12.066;2023-04-05T09:13:39;96807.78;;;7.76;39.85
21821;BME280;11073;48.586;12.066;2023-04-05T09:16:30;96834.84;;;8.07;39.76
21821;BME280;11073;48.586;12.066;2023-04-05T09:19:21;96829.22;;;8.15;38.99
21821;BME280;11073;48.586;12.066;2023-04-05T09:22:10;96821.66;;;8.37;38.81
21821;BME280;11073;48.586;12.066;2023-04-05T09:25:01;96824.50;;;8.55;38.57
21821;BME280;11073;48.586;12.066;2023-04-05T09:27:54;96828.81;;;8.63;38.05
21821;BME280;11073;48.586;12.066;2023-04-05T09:30:45;96822.88;;;8.79;37.78
21821;BME280;11073;48.586;12.066;2023-04-05T09:33:34;96828.88;;;9.13;37.50
21821;BME280;11073;48.586;12.066;2023-04-05T09:36:25;96828.81;;;9.45;37.21
21821;BME280;11073;48.586;12.066;2023-04-05T09:39:14;96826.59;;;9.60;36.63
21821;BME280;11073;48.586;12.066;2023-04-05T09:42:09;96826.03;;;9.94;36.36
21821;BME280;11073;48.586;12.066;2023-04-05T09:45:01;96827.91;;;10.31;36.34
21821;BME280;11073;48.586;12.066;2023-04-05T09:48:12;96824.16;;;10.62;35.81
21821;BME280;11073;48.586;12.066;2023-04-05T09:51:03;96834.31;;;10.96;35.21
21821;BME280;11073;48.586;12.066;2023-04-05T09:54:02;96829.91;;;10.54;34.49
21821;BME280;11073;48.586;12.066;2023-04-05T09:56:53;96827.50;;;9.90;34.73
21821;BME280;11073;48.586;12.066;2023-04-05T09:59:43;96830.13;;;9.60;34.96
21821;BME280;11073;48.586;12.066;2023-04-05T10:02:36;96815.38;;;10.00;34.86
21821;BME280;11073;48.586;12.066;2023-04-05T10:05:27;96831.56;;;9.81;34.65
21821;BME280;11073;48.586;12.066;2023-04-05T10:08:17;96834.59;;;10.46;34.93
21821;BME280;11073;48.586;12.066;2023-04-05T10:11:08;96825.66;;;10.28;34.49
21821;BME280;11073;48.586;12.066;2023-04-05T10:14:01;96821.03;;;9.91;34.05
21821;BME280;11073;48.586;12.066;2023-04-05T10:16:59;96819.69;;;9.82;34.19
21821;BME280;11073;48.586;12.066;2023-04-05T10:19:58;96814.44;;;10.06;34.31
21821;BME280;11073;48.586;12.066;2023-04-05T10:23:06;96822.25;;;10.92;34.38
21821;BME280;11073;48.586;12.066;2023-04-05T10:26:02;96818.41;;;11.00;33.93
21821;BME280;11073;48.586;12.066;2023-04-05T10:29:00;96816.13;;;10.55;33.79
21821;BME280;11073;48.586;12.066;2023-04-05T10:32:03;96804.59;;;10.11;33.76
21821;BME280;11073;48.586;12.066;2023-04-05T10:34:56;96810.16;;;9.80;33.57
21821;BME280;11073;48.586;12.066;2023-04-05T10:37:55;96800.16;;;9.62;33.73
21821;BME280;11073;48.586;12.066;2023-04-05T10:40:46;96806.06;;;9.52;33.75
21821;BME280;11073;48.586;12.066;2023-04-05T10:43:38;96804.72;;;9.43;33.95
21821;BME280;11073;48.586;12.066;2023-04-05T10:46:29;96795.03;;;9.54;34.04
21821;BME280;11073;48.586;12.066;2023-04-05T10:49:21;96799.72;;;9.65;33.94
21821;BME280;11073;48.586;12.066;2023-04-05T10:52:10;96794.53;;;9.82;33.79
21821;BME280;11073;48.586;12.066;2023-04-05T10:55:01;96803.25;;;9.65;33.94
21821;BME280;11073;48.586;12.066;2023-04-05T10:57:53;96799.78;;;9.58;33.92
21821;BME280;11073;48.586;12.066;2023-04-05T11:00:43;96803.75;;;9.56;33.81
21821;BME280;11073;48.586;12.066;2023-04-05T11:03:50;96801.84;;;9.38;33.98
21821;BME280;11073;48.586;12.066;2023-04-05T11:06:41;96797.16;;;9.27;34.05
21821;BME280;11073;48.586;12.066;2023-04-05T11:09:35;96799.47;;;9.23;34.01
21821;BME280;11073;48.586;12.066;2023-04-05T11:16:07;96791.16;;;9.25;34.00
21821;BME280;11073;48.586;12.066;2023-04-05T11:18:57;96786.84;;;9.42;34.21
21821;BME280;11073;48.586;12.066;2023-04-05T11:21:46;96782.81;;;9.70;33.95
21821;BME280;11073;48.586;12.066;2023-04-05T11:24:49;96777.47;;;9.63;33.69
21821;BME280;11073;48.586;12.066;2023-04-05T11:27:39;96780.13;;;9.26;33.56
21821;BME280;11073;48.586;12.066;2023-04-05T11:30:49;96790.50;;;9.29;33.47
21821;BME280;11073;48.586;12.066;2023-04-05T11:33:57;96780.22;;;9.38;33.74
21821;BME280;11073;48.586;12.066;2023-04-05T11:36:47;96778.50;;;9.44;33.93
21821;BME280;11073;48.586;12.066;2023-04-05T11:39:37;96782.88;;;9.45;33.77
21821;BME280;11073;48.586;12.066;2023-04-05T11:42:26;96782.09;;;9.37;33.82
21821;BME280;11073;48.586;12.066;2023-04-05T11:45:18;96778.41;;;9.32;33.76
21821;BME280;11073;48.586;12.066;2023-04-05T11:48:08;96779.09;;;9.27;33.75
21821;BME280;11073;48.586;12.066;2023-04-05T11:50:59;96770.41;;;9.44;33.76
21821;BME280;11073;48.586;12.066;2023-04-05T11:53:48;96774.50;;;9.71;33.67
21821;BME280;11073;48.586;12.066;2023-04-05T11:56:37;96775.03;;;10.88;34.97
21821;BME280;11073;48.586;12.066;2023-04-05T11:59:34;96772.09;;;12.07;33.62
21821;BME280;11073;48.586;12.066;2023-04-05T12:02:23;96766.38;;;12.60;32.58
21821;BME280;11073;48.586;12.066;2023-04-05T12:05:13;96766.94;;;12.91;32.04
21821;BME280;11073;48.586;12.066;2023-04-05T12:08:04;96758.47;;;13.04;31.50
21821;BME280;11073;48.586;12.066;2023-04-05T12:10:54;96762.03;;;13.21;31.08
21821;BME280;11073;48.586;12.066;2023-04-05T12:13:44;96758.00;;;13.79;30.84
21821;BME280;11073;48.586;12.066;2023-04-05T12:16:33;96769.44;;;14.69;30.22
21821;BME280;11073;48.586;12.066;2023-04-05T12:19:28;96767.78;;;15.22;29.80
21821;BME280;11073;48.586;12.066;2023-04-05T12:22:17;96759.00;;;15.15;29.19
21821;BME280;11073;48.586;12.066;2023-04-05T12:25:09;96755.47;;;14.60;28.83
21821;BME280;11073;48.586;12.066;2023-04-05T12:28:03;96754.28;;;13.86;28.74
21821;BME280;11073;48.586;12.066;2023-04-05T12:30:54;96747.59;;;13.04;28.06
21821;BME280;11073;48.586;12.066;2023-04-05T12:33:43;96757.16;;;12.61;28.62
21821;BME280;11073;48.586;12.066;2023-04-05T12:36:33;96754.16;;;12.46;29.03
21821;BME280;11073;48.586;12.066;2023-04-05T12:39:22;96752.78;;;13.56;29.02
21821;BME280;11073;48.586;12.066;2023-04-05T12:42:17;96742.03;;;14.54;28.68
21821;BME280;11073;48.586;12.066;2023-04-05T12:45:09;96742.22;;;15.28;28.37
21821;BME280;11073;48.586;12.066;2023-04-05T12:47:59;96743.72;;;15.88;27.88
21821;BME280;11073;48.586;12.066;2023-04-05T12:50:48;96737.94;;;16.37;27.22
21821;BME280;11073;48.586;12.066;2023-04-05T12:53:44;96732.47;;;16.42;26.53
21821;BME280;11073;48.586;12.066;2023-04-05T12:56:33;96734.78;;;16.81;26.23
21821;BME280;11073;48.586;12.066;2023-04-05T12:59:23;96730.97;;;17.28;26.25
21821;BME280;11073;48.586;12.066;2023-04-05T13:02:12;96732.56;;;17.59;25.68
21821;BME280;11073;48.586;12.066;2023-04-05T13:05:02;96730.44;;;17.21;25.33
21821;BME280;11073;48.586;12.066;2023-04-05T13:07:51;96727.56;;;16.44;25.23
21821;BME280;11073;48.586;12.066;2023-04-05T13:10:41;96725.34;;;15.74;25.34
21821;BME280;11073;48.586;12.066;2023-04-05T13:13:30;96728.53;;;15.23;25.36
21821;BME280;11073;48.586;12.066;2023-04-05T13:16:23;96724.16;;;15.22;25.38
21821;BME280;11073;48.586;12.066;2023-04-05T13:19:12;96711.31;;;14.85;25.64
21821;BME280;11073;48.586;12.066;2023-04-05T13:22:01;96712.53;;;14.46;25.68
21821;BME280;11073;48.586;12.066;2023-04-05T13:24:50;96712.38;;;14.84;26.11
21821;BME280;11073;48.586;12.066;2023-04-05T13:27:40;96711.47;;;15.80;25.82
21821;BME280;11073;48.586;12.066;2023-04-05T13:30:29;96712.59;;;16.67;25.67
21821;BME280;11073;48.586;12.066;2023-04-05T13:33:19;96703.88;;;17.16;24.98
21821;BME280;11073;48.586;12.066;2023-04-05T13:36:09;96707.69;;;17.56;24.60
21821;BME280;11073;48.586;12.066;2023-04-05T13:38:59;96701.88;;;17.98;24.24
21821;BME280;11073;48.586;12.066;2023-04-05T13:41:48;96714.97;;;18.06;24.26
21821;BME280;11073;48.586;12.066;2023-04-05T13:44:37;96702.44;;;17.90;23.75
21821;BME280;11073;48.586;12.066;2023-04-05T13:47:26;96704.59;;;17.93;23.45
21821;BME280;11073;48.586;12.066;2023-04-05T13:50:17;96702.31;;;18.21;23.91
21821;BME280;11073;48.586;12.066;2023-04-05T13:53:06;96700.28;;;17.51;23.13
21821;BME280;11073;48.586;12.066;2023-04-05T13:55:56;96696.97;;;16.47;23.51
21821;BME280;11073;48.586;12.066;2023-04-05T13:58:45;96692.34;;;15.85;23.77
21821;BME280;11073;48.586;12.066;2023-04-05T14:01:34;96679.50;;;15.33;24.12
21821;BME280;11073;48.586;12.066;2023-04-05T14:04:23;96687.66;;;16.38;24.34
21821;BME280;11073;48.586;12.066;2023-04-05T14:07:13;96682.03;;;17.11;24.13
21821;BME280;11073;48.586;12.066;2023-04-05T14:10:03;96670.50;;;17.40;23.64
21821;BME280;11073;48.586;12.066;2023-04-05T14:12:53;96679.72;;;17.79;23.25
21821;BME280;11073;48.586;12.066;2023-04-05T14:15:42;96685.13;;;18.05;22.86
21821;BME280;11073;48.586;12.066;2023-04-05T14:18:31;96684.03;;;18.01;22.87
21821;BME280;11073;48.586;12.066;2023-04-05T14:21:20;96678.25;;;18.07;22.73
21821;BME280;11073;48.586;12.066;2023-04-05T14:24:10;96680.25;;;18.46;22.62
21821;BME280;11073;48.586;12.066;2023-04-05T14:26:59;96684.38;;;18.49;22.23
21821;BME280;11073;48.586;12.066;2023-04-05T14:29:48;96681.34;;;18.50;21.83
21821;BME280;11073;48.586;12.066;2023-04-05T14:32:39;96677.81;;;18.89;22.20
21821;BME280;11073;48.586;12.066;2023-04-05T14:35:28;96687.25;;;18.72;21.59
21821;BME280;11073;48.586;12.066;2023-04-05T14:38:18;96671.78;;;18.48;21.66
21821;BME280;11073;48.586;12.066;2023-04-05T14:41:08;96676.16;;;17.84;21.36
21821;BME280;11073;48.586;12.066;2023-04-05T14:43:57;96660.72;;;18.03;21.81
21821;BME280;11073;48.586;12.066;2023-04-05T14:46:47;96657.31;;;18.32;21.75
21821;BME280;11073;48.586;12.066;2023-04-05T14:49:38;96661.69;;;18.82;22.04
21821;BME280;11073;48.586;12.066;2023-04-05T14:52:27;96663.16;;;18.69;21.16
21821;BME280;11073;48.586;12.066;2023-04-05T14:55:16;96665.38;;;18.13;21.04
21821;BME280;11073;48.586;12.066;2023-04-05T14:57:45;96665.09;;;18.09;21.09
21821;BME280;11073;48.586;12.066;2023-04-05T15:00:16;96666.53;;;18.46;21.62
21821;BME280;11073;48.586;12.066;2023-04-05T15:03:04;96661.25;;;18.60;21.66
21821;BME280;11073;48.586;12.066;2023-04-05T15:05:54;96672.38;;;18.84;21.40
21821;BME280;11073;48.586;12.066;2023-04-05T15:08:42;96662.97;;;18.90;21.37
21821;BME280;11073;48.586;12.066;2023-04-05T15:11:31;96669.16;;;18.71;20.96
21821;BME280;11073;48.586;12.066;2023-04-05T15:14:23;96668.13;;;18.57;21.27
21821;BME280;11073;48.586;12.066;2023-04-05T15:17:19;96662.03;;;18.65;21.15
21821;BME280;11073;48.586;12.066;2023-04-05T15:20:08;96662.44;;;18.49;21.00